This is the latest recevied weather packets stored in our database for station/object DH0DM-13. If no packets are shown the sender has not sent any weather packets the latest 10 day(s).
| Time | Temp. | Humidity | Pressure | Rain* | Wind** | Luminosity | Snow |
|---|---|---|---|---|---|---|---|
| 1777388315 | 16.11° C | 25% | 996.4 hPa | 0 mm | 4.92 m/s, 299° | - | - |
| 1777387714 | 16.11° C | 25% | 996.2 hPa | 0 mm | 5.81 m/s, 335° | - | - |
| 1777387113 | 16.67° C | 26% | 996.3 hPa | 0 mm | 2.24 m/s, 339° | - | - |
| 1777386512 | 16.11° C | 27% | 996.4 hPa | 0 mm | 3.13 m/s, 104° | - | - |
| 1777385911 | 16.11° C | 27% | 996.5 hPa | 0 mm | 3.58 m/s, 123° | - | - |
| 1777385310 | 16.11° C | 27% | 996.4 hPa | 0 mm | 7.15 m/s, 81° | - | - |
| 1777384709 | 16.67° C | 28% | 996.6 hPa | 0 mm | 4.47 m/s, 103° | - | - |
| 1777384108 | 16.67° C | 28% | 996.5 hPa | 0 mm | 3.58 m/s, 339° | - | - |
| 1777383508 | 15.56° C | 29% | 996.7 hPa | 0 mm | 4.02 m/s, 177° | - | - |
| 1777382906 | 16.11° C | 28% | 996.7 hPa | 0 mm | 6.71 m/s, 327° | - | - |
| 1777382305 | 15.56° C | 29% | 996.9 hPa | 0 mm | 2.68 m/s, 287° | - | - |
| 1777381704 | 16.11° C | 29% | 996.7 hPa | 0 mm | 2.68 m/s, 347° | - | - |
| 1777381103 | 15.56° C | 30% | 996.9 hPa | 0 mm | 4.02 m/s, 49° | - | - |
| 1777380503 | 15.56° C | 32% | 996.9 hPa | 0 mm | 2.24 m/s, 29° | - | - |
| 1777379902 | 15.56° C | 31% | 997 hPa | 0 mm | 6.26 m/s, 41° | - | - |
| 1777379301 | 15.56° C | 31% | 996.9 hPa | 0 mm | 8.49 m/s, 91° | - | - |
| 1777378700 | 15° C | 35% | 996.9 hPa | 0 mm | 4.02 m/s, 109° | - | - |
| 1777378099 | 15° C | 34% | 997 hPa | 0 mm | 4.47 m/s, 318° | - | - |
| 1777377498 | 15.56° C | 34% | 997 hPa | 0 mm | 2.68 m/s, 350° | - | - |
| 1777376897 | 15° C | 34% | 996.9 hPa | 0 mm | 6.71 m/s, 17° | - | - |
| 1777376296 | 15° C | 35% | 997 hPa | 0 mm | 2.68 m/s, 82° | - | - |
| 1777375695 | 15° C | 34% | 997 hPa | 0 mm | 6.26 m/s, 65° | - | - |
| 1777375094 | 15° C | 35% | 996.9 hPa | 0 mm | 2.24 m/s, 336° | - | - |
| 1777374493 | 15° C | 34% | 997 hPa | 0 mm | 5.36 m/s, 79° | - | - |
| 1777373892 | 15° C | 34% | 997.2 hPa | 0 mm | 1.34 m/s, 311° | - | - |
* Rain since midnight (hover to see other rain measurements)
** Current wind speed in m/s (hover to see current wind gust speed)